Time;durP1;ratioP1;P1;durP2;ratioP2;P2;SDS_P1;SDS_P2;PMS_P1;PMS_P2;Temp;Humidity;BMP_temperature;BMP_pressure;BME280_temperature;BME280_humidity;BME280_pressure;Samples;Min_cycle;Max_cycle;Signal;HPM_P1;HPM_P2
2022/09/05 00:00:03;;;;;;;2.40;2.20;;;21.70;99.90;;;;;;5114286;28;20020;-78
2022/09/05 00:02:32;;;;;;;4.38;2.45;;;21.70;99.90;;;;;;5106734;28;20024;-77
2022/09/05 00:05:19;;;;;;;2.67;2.17;;;21.70;99.90;;;;;;5113824;28;20031;-77
2022/09/05 00:08:11;;;;;;;3.08;2.53;;;21.70;99.90;;;;;;5107569;28;20130;-78
2022/09/05 00:10:40;;;;;;;;;;;21.70;99.90;;;;;;5088479;28;20023;-78
2022/09/05 00:13:16;;;;;;;3.42;2.42;;;21.80;99.90;;;;;;5104224;28;19989;-77
2022/09/05 00:15:41;;;;;;;4.20;2.30;;;21.80;99.90;;;;;;5114342;27;20031;-78
2022/09/05 00:18:19;;;;;;;2.40;2.20;;;21.80;99.90;;;;;;5104475;28;20015;-77
2022/09/05 00:20:49;;;;;;;3.65;2.45;;;21.80;99.90;;;;;;5112657;28;20475;-79
2022/09/05 00:23:17;;;;;;;3.75;2.50;;;21.80;99.90;;;;;;5108917;28;20053;-78
2022/09/05 00:25:58;;;;;;;3.22;2.40;;;21.80;99.90;;;;;;5102181;28;20023;-79
2022/09/05 00:28:57;;;;;;;3.47;2.33;;;21.80;99.90;;;;;;5108384;28;20389;-77
2022/09/05 00:31:39;;;;;;;2.25;2.10;;;21.80;99.90;;;;;;5032897;28;20055;-79
2022/09/05 00:34:25;;;;;;;2.15;2.05;;;21.70;99.90;;;;;;5109793;28;20016;-77
2022/09/05 00:36:53;;;;;;;2.88;2.25;;;21.70;99.90;;;;;;5105333;28;20040;-79
2022/09/05 00:39:25;;;;;;;6.72;2.40;;;21.70;99.90;;;;;;5104612;27;20020;-77
2022/09/05 00:41:56;;;;;;;6.97;2.47;;;21.70;99.90;;;;;;5107538;28;20027;-78
2022/09/05 00:44:25;;;;;;;2.40;2.20;;;21.70;99.90;;;;;;5103117;28;20274;-77
2022/09/05 00:47:22;;;;;;;2.60;2.38;;;21.60;99.90;;;;;;5104254;28;20548;-77
2022/09/05 00:49:52;;;;;;;2.70;2.50;;;21.60;99.90;;;;;;5094902;28;20036;-77
2022/09/05 00:52:26;;;;;;;2.72;2.38;;;21.50;99.90;;;;;;5102627;28;20062;-78
2022/09/05 00:55:13;;;;;;;2.88;2.28;;;21.50;99.90;;;;;;5111940;28;20204;-78
2022/09/05 00:57:58;;;;;;;2.58;2.38;;;21.50;99.90;;;;;;5101008;28;20040;-78
2022/09/05 01:00:44;;;;;;;3.60;2.17;;;21.40;99.90;;;;;;5095750;27;20012;-78
2022/09/05 01:03:54;;;;;;;3.03;2.35;;;21.40;99.90;;;;;;5100519;28;20050;-79
2022/09/05 01:06:46;;;;;;;2.72;2.47;;;21.30;99.90;;;;;;5107560;28;20103;-79
2022/09/05 01:09:37;;;;;;;4.55;2.20;;;21.30;99.90;;;;;;5099822;28;20055;-76
2022/09/05 01:12:16;;;;;;;3.10;2.25;;;21.30;99.90;;;;;;5102308;28;20138;-77
2022/09/05 01:15:16;;;;;;;2.38;2.17;;;21.30;99.90;;;;;;5097829;28;20082;-78
2022/09/05 01:17:59;;;;;;;5.43;2.40;;;21.30;99.90;;;;;;5062015;28;20433;-78
2022/09/05 01:20:49;;;;;;;2.60;2.35;;;21.30;99.90;;;;;;5080503;28;20489;-77
2022/09/05 01:23:44;;;;;;;3.35;2.40;;;21.30;99.90;;;;;;5099546;28;20504;-78
2022/09/05 01:26:24;;;;;;;3.20;2.10;;;21.30;99.90;;;;;;5107414;27;20020;-78
2022/09/05 01:29:18;;;;;;;4.63;2.35;;;21.30;99.90;;;;;;5103494;28;20024;-78
2022/09/05 01:32:05;;;;;;;4.57;2.35;;;21.30;99.90;;;;;;5099242;28;20028;-77
2022/09/05 01:34:46;;;;;;;2.78;2.38;;;21.30;99.90;;;;;;5101255;28;20089;-78
2022/09/05 01:37:44;;;;;;;3.97;2.47;;;21.30;99.90;;;;;;5105702;28;20048;-77
2022/09/05 01:40:12;;;;;;;2.45;2.20;;;21.20;99.90;;;;;;5094217;27;20030;-78
2022/09/05 01:42:57;;;;;;;2.78;2.20;;;21.20;99.90;;;;;;5108936;28;20031;-77
2022/09/05 01:45:35;;;;;;;2.42;2.25;;;21.20;99.90;;;;;;5080548;28;20027;-78
2022/09/05 01:48:10;;;;;;;4.13;2.35;;;21.20;99.90;;;;;;5106937;28;20063;-78
2022/09/05 01:51:13;;;;;;;2.20;2.03;;;21.20;99.90;;;;;;5096597;28;20111;-77
2022/09/05 01:53:39;;;;;;;;;;;21.20;99.90;;;;;;5098267;28;20043;-78
2022/09/05 01:56:27;;;;;;;2.50;2.10;;;21.20;99.90;;;;;;5102130;28;19998;-76
2022/09/05 01:59:24;;;;;;;5.63;2.10;;;21.10;99.90;;;;;;5101880;28;20107;-77
2022/09/05 02:02:14;;;;;;;2.53;2.33;;;21.10;99.90;;;;;;5099870;28;20024;-76
2022/09/05 02:05:11;;;;;;;3.45;2.50;;;21.10;99.90;;;;;;5104390;28;20027;-76
2022/09/05 02:07:55;;;;;;;2.65;2.20;;;21.10;99.90;;;;;;5094578;28;20028;-80
2022/09/05 02:10:24;;;;;;;3.67;2.28;;;21.10;99.90;;;;;;5080181;28;20031;-79
2022/09/05 02:12:57;;;;;;;2.55;2.35;;;21.10;99.90;;;;;;5106168;28;20035;-77
2022/09/05 02:15:27;;;;;;;2.92;2.20;;;21.00;99.90;;;;;;5094778;28;20032;-77
2022/09/05 02:17:57;;;;;;;2.40;2.20;;;21.00;99.90;;;;;;5107372;28;20549;-77
2022/09/05 02:20:40;;;;;;;3.20;2.28;;;21.00;99.90;;;;;;5094581;28;20028;-77
2022/09/05 02:23:35;;;;;;;2.90;2.30;;;21.00;99.90;;;;;;5099014;28;20118;-77
2022/09/05 02:26:23;;;;;;;2.80;2.42;;;21.00;99.90;;;;;;5106065;28;20031;-77
2022/09/05 02:28:59;;;;;;;2.40;2.10;;;21.00;99.90;;;;;;5100040;28;20024;-77
2022/09/05 02:31:33;;;;;;;5.72;2.58;;;21.00;99.90;;;;;;5105887;28;20363;-79
2022/09/05 02:34:28;;;;;;;4.75;2.33;;;21.00;99.90;;;;;;5102734;28;20388;-77
2022/09/05 02:36:59;;;;;;;3.95;2.47;;;20.90;99.90;;;;;;5099713;28;20062;-77
2022/09/05 02:39:51;;;;;;;2.45;2.25;;;20.90;99.90;;;;;;5098527;28;20034;-78
2022/09/05 02:42:40;;;;;;;3.53;2.40;;;20.90;99.90;;;;;;5102803;28;20402;-76
2022/09/05 02:45:43;;;;;;;4.00;2.42;;;20.90;99.90;;;;;;5093592;28;20031;-76
2022/09/05 02:48:11;;;;;;;;;;;20.90;99.90;;;;;;5036712;28;20031;-78
2022/09/05 02:50:56;;;;;;;2.50;2.30;;;20.90;99.90;;;;;;5108610;28;20285;-78
2022/09/05 02:53:24;;;;;;;3.90;2.50;;;20.90;99.90;;;;;;5097576;28;20556;-77
2022/09/05 02:55:50;;;;;;;2.78;2.30;;;21.00;99.90;;;;;;5086164;28;20026;-77
2022/09/05 02:58:18;;;;;;;2.55;2.35;;;21.00;99.90;;;;;;5104283;28;20111;-78
2022/09/05 03:00:58;;;;;;;3.70;2.30;;;21.00;99.90;;;;;;5095150;28;20019;-77
2022/09/05 03:03:33;;;;;;;3.25;2.38;;;21.00;99.90;;;;;;5098984;28;20030;-77
2022/09/05 03:06:03;;;;;;;3.88;2.30;;;20.90;99.90;;;;;;5106495;28;20482;-78
2022/09/05 03:08:32;;;;;;;2.75;2.40;;;20.90;99.90;;;;;;5103768;28;20043;-77
2022/09/05 03:11:19;;;;;;;2.30;2.10;;;20.80;99.90;;;;;;5097230;28;20024;-77
2022/09/05 03:13:56;;;;;;;2.38;2.17;;;20.80;99.90;;;;;;5097982;28;20028;-78
2022/09/05 03:17:00;;;;;;;3.03;2.15;;;20.80;99.90;;;;;;5104315;28;20027;-77
2022/09/05 03:19:38;;;;;;;2.45;2.25;;;20.80;99.90;;;;;;5096362;28;20031;-78
2022/09/05 03:22:26;;;;;;;3.10;2.75;;;20.80;99.90;;;;;;5101254;28;20070;-77
2022/09/05 03:25:12;;;;;;;3.05;2.30;;;20.80;99.90;;;;;;5094129;28;20012;-78
2022/09/05 03:27:53;;;;;;;4.97;2.53;;;20.80;99.90;;;;;;5106639;28;20028;-78
2022/09/05 03:30:20;;;;;;;6.97;2.97;;;20.90;99.90;;;;;;5077774;28;20544;-77
2022/09/05 03:33:23;;;;;;;2.92;2.50;;;20.80;99.90;;;;;;5097166;28;20133;-78
2022/09/05 03:36:08;;;;;;;5.15;2.75;;;20.80;99.90;;;;;;5085277;28;20042;-78
2022/09/05 03:39:02;;;;;;;3.70;2.63;;;20.80;99.90;;;;;;5103277;28;20085;-77
2022/09/05 03:41:54;;;;;;;2.60;2.40;;;20.80;99.90;;;;;;5099324;28;20032;-77
2022/09/05 03:44:43;;;;;;;4.03;2.47;;;20.70;99.90;;;;;;5098547;28;20074;-78
2022/09/05 03:47:36;;;;;;;3.88;2.35;;;20.70;99.90;;;;;;5100801;28;20036;-79
2022/09/05 03:50:02;;;;;;;2.72;2.53;;;20.70;99.90;;;;;;5093368;28;20020;-79
2022/09/05 03:53:12;;;;;;;3.85;2.90;;;20.70;99.90;;;;;;5102020;28;20035;-79
2022/09/05 03:55:51;;;;;;;4.78;2.90;;;20.70;99.90;;;;;;5072908;28;20023;-78
2022/09/05 03:58:33;;;;;;;3.25;2.53;;;20.70;99.90;;;;;;5098619;28;20114;-78
2022/09/05 04:01:05;;;;;;;3.80;2.75;;;20.60;99.90;;;;;;5105168;28;20030;-78
2022/09/05 04:03:50;;;;;;;4.65;2.90;;;20.70;99.90;;;;;;5101947;28;20504;-78
2022/09/05 04:06:56;;;;;;;2.88;2.65;;;20.60;99.90;;;;;;5105021;28;20027;-80
2022/09/05 04:09:45;;;;;;;2.75;2.55;;;20.60;99.90;;;;;;5082716;28;20047;-80
2022/09/05 04:12:17;;;;;;;5.10;2.67;;;20.60;99.90;;;;;;5100561;28;20132;-78
2022/09/05 04:14:50;;;;;;;3.20;2.90;;;20.60;99.90;;;;;;5094760;28;20020;-78
2022/09/05 04:17:28;;;;;;;4.50;3.08;;;20.60;99.90;;;;;;5104431;28;20063;-79
2022/09/05 04:20:07;;;;;;;3.60;3.08;;;20.60;99.90;;;;;;5089955;28;20036;-78
2022/09/05 04:23:03;;;;;;;2.85;2.50;;;20.60;99.90;;;;;;5104200;28;20023;-80
2022/09/05 04:25:47;;;;;;;4.55;2.85;;;20.60;99.90;;;;;;5079853;28;20020;-81
2022/09/05 04:28:31;;;;;;;3.10;2.80;;;20.60;99.90;;;;;;5097440;28;20397;-80
2022/09/05 04:31:20;;;;;;;4.47;2.95;;;20.60;99.90;;;;;;5108593;28;20023;-77
2022/09/05 04:34:19;;;;;;;4.05;3.03;;;20.60;99.90;;;;;;5105987;28;20111;-77
2022/09/05 04:36:57;;;;;;;3.20;2.85;;;20.60;99.90;;;;;;5055852;28;20047;-78
2022/09/05 04:39:25;;;;;;;4.65;2.92;;;20.60;99.90;;;;;;5076342;28;20491;-80
2022/09/05 04:42:03;;;;;;;3.83;3.03;;;20.60;99.90;;;;;;5064638;28;20086;-79
2022/09/05 04:44:47;;;;;;;3.55;2.83;;;20.60;99.90;;;;;;5060128;28;20240;-78
2022/09/05 04:47:25;;;;;;;4.43;2.72;;;20.60;99.90;;;;;;5066700;28;20052;-77
2022/09/05 04:50:26;;;;;;;6.32;2.70;;;20.60;99.90;;;;;;5056741;28;20029;-79
2022/09/05 04:53:18;;;;;;;3.67;2.85;;;20.70;99.90;;;;;;5053749;28;20049;-79
2022/09/05 04:55:50;;;;;;;2.90;2.70;;;20.70;99.90;;;;;;5070018;28;20077;-77
2022/09/05 04:58:34;;;;;;;5.18;2.88;;;20.70;99.90;;;;;;5061290;28;20016;-79
2022/09/05 05:01:02;;;;;;;6.20;2.85;;;20.70;99.90;;;;;;5067310;28;20039;-80
2022/09/05 05:03:30;;;;;;;7.22;2.85;;;20.70;99.90;;;;;;5065274;28;20016;-78
2022/09/05 05:05:56;;;;;;;3.33;2.92;;;20.80;99.90;;;;;;5069103;28;20407;-77
2022/09/05 05:08:32;;;;;;;3.83;2.88;;;20.80;99.90;;;;;;5065510;28;20021;-79
2022/09/05 05:11:14;;;;;;;3.97;2.88;;;20.80;99.90;;;;;;5059013;28;20028;-79
2022/09/05 05:13:59;;;;;;;4.95;2.80;;;20.80;99.90;;;;;;5057550;28;20035;-79
2022/09/05 05:16:30;;;;;;;5.57;3.20;;;20.80;99.90;;;;;;5059662;28;20392;-78
2022/09/05 05:19:13;;;;;;;7.40;2.88;;;20.90;99.90;;;;;;5062537;28;20017;-79
2022/09/05 05:21:44;;;;;;;7.38;2.88;;;20.90;99.90;;;;;;5062526;28;20081;-78
2022/09/05 05:24:15;;;;;;;5.57;2.83;;;20.90;99.90;;;;;;5059961;28;20511;-78
2022/09/05 05:27:15;;;;;;;4.13;3.03;;;20.80;99.90;;;;;;5061073;28;20024;-78
2022/09/05 05:29:59;;;;;;;5.95;2.67;;;20.80;99.90;;;;;;5060279;28;20032;-77
2022/09/05 05:32:31;;;;;;;4.85;2.97;;;20.90;99.90;;;;;;5062171;28;20203;-77
2022/09/05 05:35:12;;;;;;;5.07;3.00;;;20.90;99.90;;;;;;5069375;28;20236;-76
2022/09/05 05:37:50;;;;;;;3.10;2.67;;;21.00;99.90;;;;;;5108963;28;20489;-77
2022/09/05 05:40:16;;;;;;;3.45;3.13;;;21.00;99.90;;;;;;5078709;28;20031;-77
2022/09/05 05:42:43;;;;;;;3.05;2.72;;;21.10;99.90;;;;;;5108957;28;20054;-77
2022/09/05 05:45:25;;;;;;;3.47;2.80;;;21.10;99.90;;;;;;5094698;28;20378;-78
2022/09/05 05:47:58;;;;;;;3.10;2.60;;;21.20;99.90;;;;;;5104933;28;20027;-77
2022/09/05 05:50:51;;;;;;;3.63;2.97;;;21.20;99.90;;;;;;5094210;28;20077;-77
2022/09/05 05:53:36;;;;;;;3.85;2.85;;;21.30;99.90;;;;;;5101658;28;20520;-78
2022/09/05 05:56:39;;;;;;;3.67;3.08;;;21.40;99.90;;;;;;5108224;28;20035;-77
2022/09/05 05:59:32;;;;;;;3.22;2.95;;;21.40;99.90;;;;;;5105131;28;20030;-77
2022/09/05 06:02:00;;;;;;;3.30;3.00;;;21.50;99.90;;;;;;5101213;28;20031;-76
2022/09/05 06:05:05;;;;;;;5.65;3.20;;;21.50;99.90;;;;;;5105735;28;20019;-78
2022/09/05 06:08:08;;;;;;;5.47;2.97;;;21.60;99.90;;;;;;5096147;28;20501;-78
2022/09/05 06:10:46;;;;;;;5.40;2.72;;;21.70;99.90;;;;;;5081946;28;20032;-78
2022/09/05 06:13:38;;;;;;;3.05;2.70;;;21.70;99.90;;;;;;5102040;28;20032;-77
2022/09/05 06:16:10;;;;;;;3.22;2.88;;;21.80;99.90;;;;;;5094652;28;20070;-75
2022/09/05 06:18:50;;;;;;;3.77;2.80;;;21.80;99.90;;;;;;5093217;28;20110;-78
2022/09/05 06:21:34;;;;;;;3.50;3.20;;;21.90;99.90;;;;;;5099800;28;20281;-79
2022/09/05 06:24:38;;;;;;;3.22;3.03;;;22.00;99.90;;;;;;5096596;28;20016;-80
2022/09/05 06:27:40;;;;;;;3.50;2.90;;;22.10;99.90;;;;;;5098574;28;20478;-79
2022/09/05 06:30:12;;;;;;;3.15;2.80;;;22.10;99.90;;;;;;5106905;28;20590;-80
2022/09/05 06:32:59;;;;;;;2.92;2.63;;;22.20;99.90;;;;;;5102231;28;20055;-81
2022/09/05 06:36:10;;;;;;;3.58;2.90;;;22.30;99.90;;;;;;5076619;28;20071;-84
2022/09/05 06:38:51;;;;;;;3.28;2.78;;;22.40;99.90;;;;;;5074766;28;20298;-82
2022/09/05 06:41:37;;;;;;;4.18;2.70;;;22.50;99.90;;;;;;5104961;28;20024;-81
2022/09/05 06:44:24;;;;;;;6.70;2.88;;;22.60;99.90;;;;;;5105144;28;20115;-79
2022/09/05 06:46:54;;;;;;;3.13;2.53;;;22.70;99.90;;;;;;5103315;28;20034;-80
2022/09/05 06:49:38;;;;;;;5.45;3.00;;;22.70;99.90;;;;;;5097921;28;20110;-80
2022/09/05 06:52:28;;;;;;;3.22;2.80;;;22.80;99.90;;;;;;5102839;28;20044;-80
2022/09/05 06:55:27;;;;;;;2.55;2.25;;;22.90;99.90;;;;;;5091862;28;20023;-80
2022/09/05 06:58:26;;;;;;;5.68;2.67;;;23.00;99.60;;;;;;5102769;28;20046;-80
2022/09/05 07:00:55;;;;;;;3.67;2.63;;;23.10;99.40;;;;;;5092959;28;20020;-81
2022/09/05 07:03:34;;;;;;;2.50;2.30;;;23.20;99.30;;;;;;5097337;28;20030;-81
2022/09/05 07:06:03;;;;;;;2.88;2.55;;;23.20;99.30;;;;;;5104075;28;20403;-82
2022/09/05 07:09:13;;;;;;;5.32;2.45;;;23.30;98.90;;;;;;5101770;28;20031;-81
2022/09/05 07:12:16;;;;;;;3.78;2.63;;;23.40;98.60;;;;;;5093131;28;20036;-80
2022/09/05 07:14:50;;;;;;;5.13;2.88;;;23.50;98.30;;;;;;5055161;28;20079;-81
2022/09/05 07:17:40;;;;;;;4.88;2.80;;;23.60;98.30;;;;;;5104735;28;20027;-82
2022/09/05 07:20:33;;;;;;;2.63;2.40;;;23.70;98.10;;;;;;5092317;28;20040;-81
2022/09/05 07:23:07;;;;;;;4.13;2.50;;;23.80;98.10;;;;;;5091424;28;20032;-81
2022/09/05 07:25:33;;;;;;;2.70;2.38;;;23.90;97.70;;;;;;5108240;28;20470;-81
2022/09/05 07:28:07;;;;;;;3.92;2.67;;;24.10;97.60;;;;;;5105399;27;20027;-81
2022/09/05 07:30:35;;;;;;;2.38;2.17;;;24.10;97.70;;;;;;5094714;28;20028;-81
2022/09/05 07:33:03;;;;;;;2.45;2.25;;;24.20;97.40;;;;;;5096958;28;20040;-81
2022/09/05 07:35:37;;;;;;;3.20;2.42;;;24.30;97.00;;;;;;5108778;28;20028;-81
2022/09/05 07:38:03;;;;;;;2.10;2.00;;;24.30;96.90;;;;;;5097745;28;20063;-81
2022/09/05 07:40:34;;;;;;;5.35;2.35;;;24.30;96.60;;;;;;5107466;28;20252;-81
2022/09/05 07:43:08;;;;;;;2.50;2.10;;;24.40;96.80;;;;;;5097126;28;20116;-82
2022/09/05 07:45:37;;;;;;;3.28;2.30;;;24.40;96.50;;;;;;5107205;28;20024;-82
2022/09/05 07:48:10;;;;;;;2.97;2.10;;;24.50;95.30;;;;;;5103501;28;20054;-82
2022/09/05 07:51:04;;;;;;;3.00;2.47;;;24.60;95.70;;;;;;5093694;28;20038;-82
2022/09/05 07:53:31;;;;;;;3.03;2.25;;;24.60;95.60;;;;;;5114085;28;20628;-82
2022/09/05 07:56:01;;;;;;;3.83;2.33;;;24.60;95.60;;;;;;5086410;28;20031;-80
2022/09/05 07:58:48;;;;;;;2.60;2.40;;;24.70;95.40;;;;;;5099594;28;20112;-82
2022/09/05 08:01:17;;;;;;;2.20;2.00;;;24.80;95.00;;;;;;5104792;28;20036;-79
2022/09/05 08:03:43;;;;;;;4.00;2.13;;;24.80;94.10;;;;;;5101854;28;20081;-81
2022/09/05 08:06:17;;;;;;;4.88;2.40;;;24.90;94.20;;;;;;5105624;28;20023;-81
2022/09/05 08:08:53;;;;;;;13.15;3.22;;;25.10;95.00;;;;;;5101096;28;20031;-80
2022/09/05 08:11:23;;;;;;;10.05;3.80;;;25.10;96.50;;;;;;5109326;28;20111;-82
2022/09/05 08:13:57;;;;;;;9.25;3.60;;;25.20;97.20;;;;;;5099237;27;20120;-82
2022/09/05 08:16:24;;;;;;;6.65;3.80;;;25.30;97.90;;;;;;5102891;28;20017;-81
2022/09/05 08:18:53;;;;;;;10.75;3.58;;;25.40;97.40;;;;;;5113272;28;20097;-81
2022/09/05 08:21:29;;;;;;;7.50;3.22;;;25.40;97.00;;;;;;5110249;28;20016;-78
2022/09/05 08:24:35;;;;;;;7.78;3.58;;;25.40;97.70;;;;;;5104054;28;20518;-83
2022/09/05 08:27:28;;;;;;;14.65;3.72;;;25.50;97.20;;;;;;5105787;28;20031;-80
2022/09/05 08:30:07;;;;;;;;;;;25.60;97.00;;;;;;5108423;28;20089;-81
2022/09/05 08:33:05;;;;;;;8.65;3.20;;;25.60;97.00;;;;;;5100588;28;19923;-80
2022/09/05 08:35:51;;;;;;;4.25;3.20;;;25.60;98.10;;;;;;5081299;28;20027;-80
2022/09/05 08:38:18;;;;;;;4.00;2.60;;;25.50;97.90;;;;;;5101158;28;20550;-81
2022/09/05 08:41:04;;;;;;;7.80;3.05;;;25.20;98.00;;;;;;5110829;28;20098;-80
2022/09/05 08:44:01;;;;;;;7.45;3.00;;;25.00;98.80;;;;;;5105811;28;20025;-80
2022/09/05 08:46:34;;;;;;;11.30;2.65;;;24.60;99.20;;;;;;5102393;28;20143;-84
2022/09/05 08:49:11;;;;;;;6.45;2.60;;;24.60;99.90;;;;;;5103020;28;20017;-81
2022/09/05 08:51:50;;;;;;;6.57;3.03;;;24.60;99.70;;;;;;5100843;28;20040;-79
2022/09/05 08:54:24;;;;;;;4.38;2.92;;;24.70;99.00;;;;;;5112996;28;20035;-83
2022/09/05 08:57:09;;;;;;;4.05;2.83;;;24.70;99.60;;;;;;5104870;27;20020;-81
2022/09/05 08:59:52;;;;;;;6.78;3.42;;;24.80;99.70;;;;;;5104685;28;20619;-80
2022/09/05 09:02:32;;;;;;;7.57;3.20;;;24.90;99.00;;;;;;5101564;28;20107;-80
2022/09/05 09:05:33;;;;;;;6.72;2.75;;;24.90;99.40;;;;;;5110222;28;20114;-80
2022/09/05 09:08:12;;;;;;;7.25;2.97;;;25.10;99.30;;;;;;5098082;28;20028;-80
2022/09/05 09:10:53;;;;;;;8.35;2.80;;;25.10;98.90;;;;;;5110884;28;20031;-81
2022/09/05 09:13:51;;;;;;;3.13;2.73;;;25.20;99.40;;;;;;5103901;28;20509;-80
2022/09/05 09:16:19;;;;;;;4.63;2.90;;;25.30;99.00;;;;;;5096889;28;20022;-79
2022/09/05 09:18:48;;;;;;;8.50;2.88;;;25.40;98.60;;;;;;5097803;28;20020;-82
2022/09/05 09:21:47;;;;;;;4.03;2.70;;;25.50;97.50;;;;;;5096086;28;20614;-81
2022/09/05 09:24:35;;;;;;;6.57;3.50;;;25.60;96.80;;;;;;5093177;28;20424;-81
2022/09/05 09:27:07;;;;;;;4.50;2.53;;;25.80;96.90;;;;;;5101342;28;20122;-79
2022/09/05 09:29:38;;;;;;;6.38;2.65;;;26.00;94.70;;;;;;5092505;28;20038;-81
2022/09/05 09:32:19;;;;;;;7.90;2.60;;;26.20;95.20;;;;;;5100170;28;20114;-79
2022/09/05 09:35:03;;;;;;;8.90;3.08;;;26.40;94.80;;;;;;5090122;28;20020;-80
2022/09/05 09:38:07;;;;;;;4.20;2.42;;;26.50;95.90;;;;;;5095243;28;20028;-81
2022/09/05 09:40:45;;;;;;;3.35;2.47;;;26.40;93.80;;;;;;5085565;28;20657;-81
2022/09/05 09:43:27;;;;;;;3.70;2.90;;;26.20;95.50;;;;;;5103174;28;20505;-82
2022/09/05 09:45:58;;;;;;;3.78;2.80;;;26.00;95.80;;;;;;5094507;28;20016;-81
2022/09/05 09:48:45;;;;;;;8.20;2.83;;;25.90;95.90;;;;;;5093261;28;20095;-80
2022/09/05 09:51:11;;;;;;;7.30;3.00;;;25.80;96.00;;;;;;5097689;28;20474;-81
2022/09/05 09:53:37;;;;;;;4.20;2.90;;;25.90;95.90;;;;;;5103689;28;20050;-81
2022/09/05 09:56:25;;;;;;;12.70;2.70;;;26.00;95.80;;;;;;5098549;28;20020;-79
2022/09/05 09:59:06;;;;;;;6.43;2.90;;;26.10;94.50;;;;;;5098418;28;20031;-81
2022/09/05 10:01:37;;;;;;;6.38;2.63;;;26.10;94.90;;;;;;5102695;28;20024;-79
2022/09/05 10:04:09;;;;;;;3.15;2.58;;;26.10;94.50;;;;;;5104256;28;20016;-80
2022/09/05 10:07:01;;;;;;;8.82;2.60;;;26.20;96.00;;;;;;5100708;28;20115;-81
2022/09/05 10:09:40;;;;;;;2.95;2.20;;;26.40;95.80;;;;;;5090931;28;20023;-79
2022/09/05 10:13:00;;;;;;;4.65;2.55;;;26.50;94.60;;;;;;5098391;28;20027;-80
2022/09/05 10:15:44;;;;;;;3.80;2.55;;;26.60;95.10;;;;;;5010976;28;20176;-79
2022/09/05 10:18:38;;;;;;;3.25;2.30;;;26.40;95.10;;;;;;5101913;28;20359;-79
2022/09/05 10:21:07;;;;;;;3.45;2.65;;;26.40;95.30;;;;;;5067076;28;20143;-80
2022/09/05 10:23:45;;;;;;;2.70;2.13;;;26.50;95.20;;;;;;5103526;28;20106;-81
2022/09/05 10:26:59;;;;;;;5.07;2.80;;;26.50;93.90;;;;;;5105310;28;20099;-81
2022/09/05 10:29:44;;;;;;;5.00;2.72;;;26.60;94.80;;;;;;5061624;28;20072;-80
2022/09/05 10:32:33;;;;;;;7.47;2.72;;;26.70;93.40;;;;;;5100556;28;20401;-80
2022/09/05 10:35:09;;;;;;;5.53;2.75;;;26.60;93.90;;;;;;5109650;28;20020;-80
2022/09/05 10:37:42;;;;;;;4.60;2.03;;;26.70;94.20;;;;;;5106069;28;20131;-81
2022/09/05 10:40:12;;;;;;;3.05;2.25;;;26.60;92.40;;;;;;5093320;28;20072;-79
2022/09/05 10:42:46;;;;;;;4.50;2.50;;;26.60;93.10;;;;;;5104805;28;20058;-80
2022/09/05 10:45:41;;;;;;;5.25;2.58;;;26.60;94.00;;;;;;5077147;28;20026;-80
2022/09/05 10:48:37;;;;;;;3.60;2.47;;;26.90;93.70;;;;;;5095452;28;20128;-81
2022/09/05 10:51:13;;;;;;;2.97;2.08;;;27.10;93.60;;;;;;5095335;28;20028;-80
2022/09/05 10:54:02;;;;;;;3.03;2.05;;;27.10;93.40;;;;;;5096981;28;20115;-82
2022/09/05 10:56:36;;;;;;;2.47;2.28;;;27.00;92.30;;;;;;5060804;28;20036;-83
2022/09/05 10:59:03;;;;;;;4.90;2.05;;;27.00;93.40;;;;;;5100361;28;20028;-80
2022/09/05 11:02:08;;;;;;;3.63;2.20;;;27.10;92.60;;;;;;5099965;28;20016;-82
2022/09/05 11:04:52;;;;;;;3.42;2.10;;;27.10;92.80;;;;;;5100439;28;20039;-79
2022/09/05 11:07:30;;;;;;;2.35;2.13;;;27.30;92.90;;;;;;5099918;28;20027;-80
2022/09/05 11:10:30;;;;;;;2.25;1.92;;;27.40;92.20;;;;;;5092735;28;20118;-78
2022/09/05 11:13:13;;;;;;;4.05;2.33;;;27.50;91.50;;;;;;5105681;28;20032;-81
2022/09/05 11:15:48;;;;;;;2.60;2.13;;;27.70;91.80;;;;;;5094358;28;20027;-80
2022/09/05 11:18:44;;;;;;;4.03;2.25;;;27.80;92.00;;;;;;5104475;28;20522;-78
2022/09/05 11:21:18;;;;;;;3.22;2.17;;;27.90;91.50;;;;;;5095335;28;20386;-80
2022/09/05 11:23:51;;;;;;;3.20;1.83;;;28.10;91.30;;;;;;5089111;28;20028;-78
2022/09/05 11:26:42;;;;;;;4.72;2.30;;;28.00;87.80;;;;;;5093829;28;20032;-79
2022/09/05 11:29:16;;;;;;;4.70;2.20;;;28.00;90.90;;;;;;5087054;28;20028;-79
2022/09/05 11:32:01;;;;;;;6.90;2.40;;;27.80;91.80;;;;;;5096547;28;20074;-80
2022/09/05 11:34:58;;;;;;;7.15;2.20;;;27.80;93.10;;;;;;5086900;28;20457;-80
2022/09/05 11:37:37;;;;;;;3.58;2.25;;;28.00;93.40;;;;;;5097144;28;20078;-79
2022/09/05 11:40:21;;;;;;;3.47;2.60;;;28.20;92.80;;;;;;5104124;28;20028;-79
2022/09/05 11:42:59;;;;;;;6.47;2.45;;;28.30;93.00;;;;;;5099285;28;20064;-80
2022/09/05 11:45:44;;;;;;;3.25;2.40;;;28.30;93.00;;;;;;5090290;28;20028;-79
2022/09/05 11:48:13;;;;;;;4.65;2.80;;;28.20;94.00;;;;;;5094505;28;20377;-82
2022/09/05 11:51:19;;;;;;;3.88;2.75;;;27.90;95.00;;;;;;5105137;28;20016;-80
2022/09/05 11:53:59;;;;;;;4.55;2.47;;;27.60;95.80;;;;;;5092519;28;20036;-81
2022/09/05 11:56:46;;;;;;;6.07;3.17;;;27.30;97.10;;;;;;5100323;28;20024;-82
2022/09/05 11:59:24;;;;;;;3.28;2.97;;;27.10;99.20;;;;;;5092330;28;20416;-82
2022/09/05 12:01:56;;;;;;;3.75;2.92;;;27.00;99.90;;;;;;5103300;28;20085;-81
2022/09/05 12:05:03;;;;;;;9.07;3.42;;;27.10;99.90;;;;;;5095049;28;20532;-79
2022/09/05 12:07:56;;;;;;;5.13;3.08;;;27.40;99.10;;;;;;5060663;28;20032;-81
2022/09/05 12:10:36;;;;;;;4.93;2.90;;;27.70;99.70;;;;;;5072264;28;20505;-81
2022/09/05 12:13:13;;;;;;;7.97;3.20;;;28.40;98.20;;;;;;5098634;28;20036;-82
2022/09/05 12:15:44;;;;;;;3.08;2.67;;;29.40;97.20;;;;;;5092156;28;20087;-83
2022/09/05 12:18:40;;;;;;;6.57;2.70;;;30.70;95.30;;;;;;5092662;28;20024;-82
2022/09/05 12:21:36;;;;;;;7.95;2.35;;;31.70;94.20;;;;;;5100183;28;20643;-81
2022/09/05 12:24:18;;;;;;;6.05;2.60;;;32.70;92.60;;;;;;5099221;28;20077;-81
2022/09/05 12:27:07;;;;;;;3.20;2.10;;;33.40;91.20;;;;;;5095302;28;20522;-83
2022/09/05 12:29:41;;;;;;;7.32;2.13;;;34.10;90.20;;;;;;5068521;28;20079;-84
2022/09/05 12:32:15;;;;;;;4.30;2.17;;;34.90;87.60;;;;;;5097948;28;20134;-82
2022/09/05 12:34:52;;;;;;;3.03;2.03;;;35.40;86.20;;;;;;5094768;28;20024;-84
2022/09/05 12:37:21;;;;;;;4.10;2.15;;;35.60;85.00;;;;;;5077546;28;20040;-83
2022/09/05 12:40:00;;;;;;;4.90;2.03;;;35.90;83.60;;;;;;5089620;28;20023;-83
2022/09/05 12:42:43;;;;;;;2.20;1.92;;;36.00;82.80;;;;;;5092686;28;20399;-83
2022/09/05 12:45:46;;;;;;;3.53;2.00;;;36.60;81.70;;;;;;5090705;28;20157;-81
2022/09/05 12:48:26;;;;;;;3.42;1.70;;;37.80;78.50;;;;;;5099307;28;20470;-85
2022/09/05 12:51:13;;;;;;;7.55;2.20;;;38.30;76.70;;;;;;5089009;28;20062;-80
2022/09/05 12:53:46;;;;;;;7.07;1.98;;;38.90;75.30;;;;;;5093907;28;20437;-83
2022/09/05 12:56:49;;;;;;;3.55;2.00;;;39.00;75.70;;;;;;5095265;28;20009;-86
2022/09/05 12:59:22;;;;;;;1.88;1.73;;;39.00;72.30;;;;;;5089856;28;20024;-79
2022/09/05 13:02:06;;;;;;;5.57;2.10;;;39.20;74.60;;;;;;5105028;28;20551;-80
2022/09/05 13:04:46;;;;;;;5.68;1.92;;;39.80;72.20;;;;;;5092107;28;20047;-80
2022/09/05 13:07:17;;;;;;;2.88;1.90;;;40.30;71.30;;;;;;5098590;28;20051;-82
2022/09/05 13:09:55;;;;;;;1.63;1.50;;;40.60;69.60;;;;;;5076517;28;20034;-82
2022/09/05 13:12:32;;;;;;;2.05;1.77;;;40.60;65.10;;;;;;5095541;28;20440;-83
2022/09/05 13:15:05;;;;;;;2.67;1.83;;;41.00;63.00;;;;;;5093453;28;20019;-81
2022/09/05 13:17:49;;;;;;;3.30;1.20;;;41.70;63.20;;;;;;5097427;28;20089;-81
2022/09/05 13:20:35;;;;;;;3.60;1.65;;;42.00;59.10;;;;;;5097046;28;20051;-81
2022/09/05 13:23:26;;;;;;;2.15;1.60;;;41.90;60.00;;;;;;5096593;28;20028;-81
2022/09/05 13:26:10;;;;;;;6.03;1.48;;;41.60;61.00;;;;;;5094909;28;20099;-80
2022/09/05 13:28:44;;;;;;;1.50;1.05;;;41.30;58.80;;;;;;5095206;28;20097;-82
2022/09/05 13:31:12;;;;;;;2.75;1.67;;;40.50;56.10;;;;;;5093922;28;20105;-80
2022/09/05 13:33:59;;;;;;;3.70;1.42;;;40.20;61.50;;;;;;5096719;28;20032;-78
2022/09/05 13:36:29;;;;;;;3.85;1.58;;;40.30;59.10;;;;;;5098162;28;20043;-84
2022/09/05 13:38:58;;;;;;;2.67;1.40;;;40.50;60.60;;;;;;5095207;28;20517;-80
2022/09/05 13:41:40;;;;;;;3.58;1.50;;;40.80;59.90;;;;;;5096899;28;20024;-81
2022/09/05 13:44:15;;;;;;;2.25;1.58;;;41.00;56.00;;;;;;5095234;28;20035;-83
2022/09/05 13:46:53;;;;;;;2.22;1.08;;;40.60;59.70;;;;;;5097437;28;20024;-78
2022/09/05 13:49:24;;;;;;;1.92;1.40;;;40.40;58.60;;;;;;5093654;28;20488;-77
2022/09/05 13:52:10;;;;;;;5.22;1.70;;;40.60;58.00;;;;;;5095393;28;20028;-82
2022/09/05 13:55:08;;;;;;;3.13;1.70;;;40.30;59.20;;;;;;5092213;28;20699;-79
2022/09/05 13:57:53;;;;;;;4.90;1.50;;;40.40;60.50;;;;;;5094918;28;20103;-82
2022/09/05 14:00:54;;;;;;;3.72;1.40;;;39.90;59.40;;;;;;5090852;28;20498;-82
2022/09/05 14:03:49;;;;;;;3.75;1.63;;;40.40;60.30;;;;;;5095623;28;20028;-82